Time;durP1;ratioP1;P1;durP2;ratioP2;P2;SDS_P1;SDS_P2;PMS_P1;PMS_P2;Temp;Humidity;BMP_temperature;BMP_pressure;BME280_temperature;BME280_humidity;BME280_pressure;Samples;Min_cycle;Max_cycle;Signal;HPM_P1;HPM_P2
2021/11/20 00:01:29;;;;;;;2.27;2.17;;;;;;;;;;5043551;28;20762;-78
2021/11/20 00:03:55;;;;;;;4.20;2.93;;;7.20;88.60;;;;;;5044543;28;20232;-76
2021/11/20 00:06:25;;;;;;;2.30;2.10;;;7.20;88.60;;;;;;5047699;28;20281;-76
2021/11/20 00:08:51;;;;;;;3.07;2.23;;;7.20;88.60;;;;;;5048710;28;20270;-76
2021/11/20 00:11:19;;;;;;;3.63;2.07;;;7.20;88.60;;;;;;5047513;28;20203;-75
2021/11/20 00:13:46;;;;;;;2.47;2.33;;;7.20;88.50;;;;;;5045573;28;20298;-76
2021/11/20 00:16:13;;;;;;;2.07;1.93;;;7.20;88.60;;;;;;5044515;28;20184;-76
2021/11/20 00:18:40;;;;;;;3.97;2.43;;;7.20;88.60;;;;;;5047056;28;20215;-76
2021/11/20 00:21:11;;;;;;;2.60;2.03;;;7.20;88.80;;;;;;5047539;28;20179;-76
2021/11/20 00:23:48;;;;;;;2.97;2.40;;;7.20;88.90;;;;;;5048342;28;20268;-76
2021/11/20 00:26:17;;;;;;;2.17;1.93;;;7.20;89.00;;;;;;5045012;28;20230;-76
2021/11/20 00:31:26;;;;;;;2.60;2.40;;;7.20;88.90;;;;;;5046010;28;20195;-76
2021/11/20 00:33:52;;;;;;;2.57;2.37;;;;;;;;;;5047626;28;20627;-76
2021/11/20 00:36:21;;;;;;;4.50;2.10;;;7.10;89.90;;;;;;5047934;28;20717;-76
2021/11/20 00:38:47;;;;;;;3.53;2.97;;;7.10;90.00;;;;;;5048745;28;20235;-76
2021/11/20 00:41:16;;;;;;;4.47;1.77;;;7.20;89.90;;;;;;5048198;28;20241;-76
2021/11/20 00:43:44;;;;;;;1.90;1.80;;;7.10;89.90;;;;;;5046327;28;20662;-75
2021/11/20 00:46:11;;;;;;;4.27;2.67;;;7.10;90.10;;;;;;5044197;28;20187;-75
2021/11/20 00:48:37;;;;;;;2.67;2.33;;;;;;;;;;5045536;28;20279;-77
2021/11/20 00:51:08;;;;;;;3.00;2.37;;;7.10;90.70;;;;;;5045124;28;20190;-77
2021/11/20 00:53:34;;;;;;;3.77;3.03;;;7.10;90.50;;;;;;5048198;28;20215;-77
2021/11/20 00:56:01;;;;;;;2.37;2.17;;;7.20;90.50;;;;;;5044849;28;20270;-77
2021/11/20 00:58:28;;;;;;;6.43;2.33;;;7.20;90.40;;;;;;5048073;28;20235;-76
2021/11/20 01:00:56;;;;;;;2.10;1.90;;;7.20;90.50;;;;;;5046013;28;20176;-76
2021/11/20 01:03:25;;;;;;;2.53;2.33;;;7.20;90.60;;;;;;5048041;28;20171;-76
2021/11/20 01:05:52;;;;;;;4.13;2.13;;;7.10;90.70;;;;;;5044186;28;20625;-76
2021/11/20 01:08:21;;;;;;;2.53;2.27;;;7.10;90.90;;;;;;5046331;28;20266;-77
2021/11/20 01:10:51;;;;;;;2.43;2.17;;;7.10;90.90;;;;;;5043962;28;21408;-76
2021/11/20 01:13:17;;;;;;;2.80;2.50;;;7.10;91.30;;;;;;5048361;28;20189;-77
2021/11/20 01:15:56;;;;;;;2.20;1.93;;;7.10;91.40;;;;;;5046128;28;20184;-77
2021/11/20 01:18:23;;;;;;;3.67;2.43;;;7.10;91.50;;;;;;5045121;28;20218;-76
2021/11/20 01:20:50;;;;;;;1.67;1.57;;;7.10;91.50;;;;;;5045389;28;20191;-76
2021/11/20 01:23:18;;;;;;;2.60;2.40;;;7.20;91.30;;;;;;5048710;28;20176;-77
2021/11/20 01:25:45;;;;;;;2.27;2.13;;;7.20;91.30;;;;;;5046191;28;20293;-76
2021/11/20 01:28:12;;;;;;;6.43;2.00;;;7.10;91.50;;;;;;5045893;28;20225;-77
2021/11/20 01:30:39;;;;;;;5.27;2.40;;;7.10;91.60;;;;;;5043270;28;20770;-77
2021/11/20 01:33:05;;;;;;;2.07;1.93;;;7.10;91.70;;;;;;5047310;28;20176;-77
2021/11/20 01:35:31;;;;;;;2.80;1.93;;;7.10;91.80;;;;;;5047529;28;20611;-76
2021/11/20 01:37:57;;;;;;;2.33;2.07;;;7.10;91.90;;;;;;5047576;28;20610;-77
2021/11/20 01:40:25;;;;;;;3.33;2.73;;;7.10;92.00;;;;;;5047513;28;20230;-77
2021/11/20 01:42:51;;;;;;;3.20;2.63;;;7.10;92.10;;;;;;5044127;28;20183;-76
2021/11/20 01:45:25;;;;;;;1.47;1.47;;;7.10;92.20;;;;;;5045893;28;20582;-77
2021/11/20 01:47:51;;;;;;;2.10;2.00;;;;;;;;;;5048105;28;20244;-76
2021/11/20 01:50:34;;;;;;;2.50;2.30;;;7.10;92.10;;;;;;5045145;28;20278;-77
2021/11/20 01:53:23;;;;;;;2.00;1.90;;;7.10;92.00;;;;;;5046652;28;20176;-77
2021/11/20 01:55:49;;;;;;;2.17;2.00;;;;;;;;;;5044228;28;20183;-77
2021/11/20 01:58:52;;;;;;;4.87;3.03;;;7.20;92.20;;;;;;5046037;28;20288;-77
2021/11/20 02:01:19;;;;;;;2.27;1.93;;;;;;;;;;5042315;28;20183;-76
2021/11/20 02:03:55;;;;;;;1.60;1.57;;;7.10;92.20;;;;;;5045351;28;20176;-76
2021/11/20 02:06:47;;;;;;;1.73;1.63;;;7.20;92.20;;;;;;5059663;28;20221;-76
2021/11/20 02:09:32;;;;;;;3.60;2.23;;;7.20;92.30;;;;;;5000731;28;20299;-76
2021/11/20 02:12:00;;;;;;;1.63;1.53;;;7.30;92.10;;;;;;4989758;28;20216;-75
2021/11/20 02:14:27;;;;;;;2.23;2.13;;;7.30;92.10;;;;;;4975568;28;20186;-74
2021/11/20 02:16:53;;;;;;;1.97;1.87;;;;;;;;;;4966590;28;20264;-75
2021/11/20 02:19:28;;;;;;;2.73;2.47;;;7.30;92.10;;;;;;4993059;28;20346;-75
2021/11/20 02:22:05;;;;;;;2.17;2.00;;;7.30;92.10;;;;;;4986548;28;20742;-75
2021/11/20 02:24:31;;;;;;;2.77;1.97;;;;;;;;;;4989245;28;20759;-75
2021/11/20 02:26:57;;;;;;;2.10;1.63;;;;;;;;;;4973566;28;20228;-75
2021/11/20 02:29:23;;;;;;;2.23;2.13;;;;;;;;;;4971240;28;20221;-75
2021/11/20 02:31:58;;;;;;;1.83;1.73;;;7.40;92.00;;;;;;4989433;28;20738;-75
2021/11/20 02:34:28;;;;;;;5.37;1.77;;;7.40;91.90;;;;;;4971999;28;20884;-75
2021/11/20 02:36:54;;;;;;;2.20;2.10;;;;;;;;;;5008442;28;20188;-77
2021/11/20 02:39:24;;;;;;;1.77;1.53;;;7.50;91.70;;;;;;4995079;28;20320;-77
2021/11/20 02:41:53;;;;;;;2.07;1.97;;;7.50;91.60;;;;;;4989176;28;20263;-76
2021/11/20 02:44:21;;;;;;;1.87;1.77;;;7.50;91.60;;;;;;4994072;28;20264;-76
2021/11/20 02:46:54;;;;;;;5.07;2.07;;;7.50;91.50;;;;;;5024558;28;20195;-77
2021/11/20 02:49:20;;;;;;;2.00;1.67;;;7.50;91.50;;;;;;5044745;28;20183;-76
2021/11/20 02:51:50;;;;;;;1.93;1.57;;;7.50;91.50;;;;;;5046102;28;20619;-76
2021/11/20 02:54:16;;;;;;;2.83;1.47;;;;;;;;;;5039525;28;20615;-76
2021/11/20 02:56:52;;;;;;;2.27;2.13;;;7.60;91.40;;;;;;5043774;28;20176;-76
2021/11/20 02:59:18;;;;;;;2.00;1.30;;;7.60;91.50;;;;;;5043314;28;20708;-76
2021/11/20 03:01:46;;;;;;;1.73;1.63;;;7.60;91.50;;;;;;5059774;28;20665;-76
2021/11/20 03:04:13;;;;;;;1.47;1.47;;;7.60;91.60;;;;;;5042347;28;20237;-76
2021/11/20 03:06:40;;;;;;;1.47;1.37;;;7.60;91.70;;;;;;5044270;28;20203;-75
2021/11/20 03:09:07;;;;;;;2.50;2.30;;;7.50;91.80;;;;;;5045504;28;20184;-76
2021/11/20 03:11:33;;;;;;;1.90;1.80;;;7.50;91.90;;;;;;5044726;28;20261;-76
2021/11/20 03:14:04;;;;;;;2.20;1.70;;;7.50;92.00;;;;;;5042441;28;20665;-76
2021/11/20 03:16:39;;;;;;;1.20;1.20;;;7.60;92.00;;;;;;5043995;28;20638;-76
2021/11/20 03:19:06;;;;;;;1.50;1.40;;;7.60;91.90;;;;;;5041209;28;20214;-76
2021/11/20 03:21:34;;;;;;;1.30;1.30;;;7.60;91.90;;;;;;5044780;28;20814;-76
2021/11/20 03:24:02;;;;;;;2.47;2.27;;;7.60;91.90;;;;;;5046697;28;20657;-76
2021/11/20 03:26:28;;;;;;;2.73;1.70;;;7.60;92.00;;;;;;5042326;28;20708;-75
2021/11/20 03:28:54;;;;;;;1.70;1.60;;;;;;;;;;5044825;28;20953;-75
2021/11/20 03:31:20;;;;;;;2.27;2.17;;;;;;;;;;5074440;28;20194;-75
2021/11/20 03:33:47;;;;;;;1.67;1.57;;;7.70;91.90;;;;;;5045791;28;20179;-76
2021/11/20 03:36:14;;;;;;;1.90;1.80;;;7.70;91.90;;;;;;5043896;28;20581;-76
2021/11/20 03:38:40;;;;;;;1.97;1.87;;;7.70;91.90;;;;;;5045112;28;20243;-75
2021/11/20 03:41:06;;;;;;;2.30;1.30;;;7.70;92.00;;;;;;5044221;28;20668;-76
2021/11/20 03:43:33;;;;;;;2.27;2.17;;;7.70;91.90;;;;;;5047733;28;20191;-75
2021/11/20 03:45:59;;;;;;;5.00;2.00;;;;;;;;;;5049196;28;20215;-75
2021/11/20 03:48:25;;;;;;;4.53;2.17;;;;;;;;;;5047945;28;20183;-75
2021/11/20 03:50:51;;;;;;;3.13;2.20;;;;;;;;;;5049064;28;20188;-75
2021/11/20 03:53:17;;;;;;;1.93;1.80;;;7.80;91.90;;;;;;5048135;28;20180;-75
2021/11/20 03:55:46;;;;;;;5.80;1.90;;;7.80;91.90;;;;;;5045460;28;20649;-75
2021/11/20 03:58:13;;;;;;;2.47;2.00;;;7.80;91.90;;;;;;5045689;28;20219;-75
2021/11/20 04:00:45;;;;;;;2.83;2.63;;;7.80;91.90;;;;;;5045006;28;20923;-74
2021/11/20 04:03:12;;;;;;;2.00;1.90;;;7.80;91.90;;;;;;5049496;28;20191;-75
2021/11/20 04:05:39;;;;;;;2.33;2.20;;;7.80;91.70;;;;;;5048702;28;20494;-75
2021/11/20 04:08:05;;;;;;;2.00;1.90;;;7.80;91.80;;;;;;5048228;28;20882;-74
2021/11/20 04:10:31;;;;;;;1.93;1.70;;;7.80;91.80;;;;;;5044328;28;20199;-75
2021/11/20 04:12:57;;;;;;;1.77;1.67;;;7.80;91.70;;;;;;5047523;28;20195;-75
2021/11/20 04:15:26;;;;;;;2.10;2.00;;;7.80;91.70;;;;;;5047873;28;20184;-75
2021/11/20 04:17:52;;;;;;;1.63;1.60;;;;;;;;;;5047992;28;20194;-75
2021/11/20 04:20:22;;;;;;;2.60;1.87;;;7.80;91.70;;;;;;5047432;28;20212;-75
2021/11/20 04:22:48;;;;;;;2.83;2.57;;;7.80;91.60;;;;;;5046775;28;20184;-75
2021/11/20 04:25:16;;;;;;;1.67;1.57;;;7.90;91.50;;;;;;5047729;28;20183;-75
2021/11/20 04:27:42;;;;;;;2.50;2.23;;;7.90;91.40;;;;;;5046732;28;20175;-75
2021/11/20 04:30:11;;;;;;;1.60;1.50;;;7.80;91.30;;;;;;5046388;28;20302;-75
2021/11/20 04:32:37;;;;;;;3.40;1.77;;;7.90;91.30;;;;;;5048131;28;20179;-75
2021/11/20 04:35:04;;;;;;;1.83;1.73;;;7.90;91.20;;;;;;5047469;28;20532;-75
2021/11/20 04:37:30;;;;;;;4.10;2.40;;;7.90;91.00;;;;;;5047897;28;20657;-75
2021/11/20 04:39:58;;;;;;;2.23;1.87;;;7.90;91.00;;;;;;5047979;28;20249;-75
2021/11/20 04:42:24;;;;;;;2.03;1.90;;;7.90;91.00;;;;;;5046085;28;20184;-75
2021/11/20 04:44:50;;;;;;;3.00;1.80;;;;;;;;;;5046589;28;20183;-75
2021/11/20 04:47:16;;;;;;;2.63;2.43;;;8.00;90.80;;;;;;5048250;28;20212;-75
2021/11/20 04:49:42;;;;;;;1.67;1.63;;;;;;;;;;5048466;28;20722;-75
2021/11/20 04:52:08;;;;;;;2.60;2.03;;;;;;;;;;5044816;28;20187;-75
2021/11/20 04:54:34;;;;;;;1.70;1.60;;;8.00;90.60;;;;;;5048942;28;20188;-76
2021/11/20 04:57:00;;;;;;;1.67;1.57;;;;;;;;;;5045229;28;20172;-76
2021/11/20 04:59:26;;;;;;;1.60;1.60;;;;;;;;;;5047110;28;20720;-75
2021/11/20 05:01:51;;;;;;;2.13;2.00;;;8.00;90.70;;;;;;5045479;28;20199;-76
2021/11/20 05:04:17;;;;;;;1.73;1.73;;;;;;;;;;5045371;28;20226;-76
2021/11/20 05:06:43;;;;;;;1.83;1.37;;;;;;;;;;5047091;28;20179;-75
2021/11/20 05:09:10;;;;;;;1.57;1.47;;;8.00;90.50;;;;;;5048325;28;20194;-76
2021/11/20 05:11:36;;;;;;;1.77;1.43;;;8.00;90.50;;;;;;5043678;28;20286;-75
2021/11/20 05:14:03;;;;;;;1.67;1.50;;;8.00;90.50;;;;;;5047981;28;20176;-76
2021/11/20 05:16:29;;;;;;;2.33;1.80;;;8.10;90.50;;;;;;5046870;28;20198;-76
2021/11/20 05:18:55;;;;;;;1.27;1.27;;;;;;;;;;5044937;28;20211;-76
2021/11/20 05:21:22;;;;;;;1.77;1.67;;;8.10;90.60;;;;;;5047253;28;20256;-76
2021/11/20 05:23:49;;;;;;;1.57;1.47;;;8.10;90.60;;;;;;5046014;28;20184;-76
2021/11/20 05:26:16;;;;;;;1.60;1.50;;;8.10;90.60;;;;;;5045572;28;20183;-76
2021/11/20 05:28:47;;;;;;;1.40;1.30;;;8.10;90.60;;;;;;5044595;28;20193;-76
2021/11/20 05:31:13;;;;;;;1.63;1.20;;;8.10;90.50;;;;;;5044749;28;20188;-75
2021/11/20 05:33:42;;;;;;;1.50;1.40;;;8.10;90.50;;;;;;5045316;28;20183;-76
2021/11/20 05:36:10;;;;;;;1.43;1.43;;;8.10;90.50;;;;;;5046803;28;20186;-75
2021/11/20 05:38:36;;;;;;;1.97;1.40;;;;;;;;;;5047468;28;20310;-75
2021/11/20 05:41:03;;;;;;;2.50;1.33;;;8.10;90.40;;;;;;5046318;28;20730;-77
2021/11/20 05:43:29;;;;;;;1.03;1.03;;;;;;;;;;5046595;28;20192;-77
2021/11/20 05:46:00;;;;;;;3.30;1.43;;;8.10;90.40;;;;;;5045762;28;20218;-77
2021/11/20 05:48:26;;;;;;;1.33;1.23;;;8.10;90.40;;;;;;5045934;28;20208;-77
2021/11/20 05:50:52;;;;;;;1.33;1.33;;;8.10;90.50;;;;;;5047641;28;20175;-77
2021/11/20 05:53:25;;;;;;;1.63;1.53;;;8.20;90.50;;;;;;5047336;28;20175;-77
2021/11/20 05:55:53;;;;;;;1.33;1.33;;;8.20;90.40;;;;;;5047036;28;20258;-77
2021/11/20 05:58:19;;;;;;;1.93;1.63;;;8.20;90.20;;;;;;5045936;28;20196;-77
2021/11/20 06:00:52;;;;;;;2.97;1.90;;;8.20;90.20;;;;;;5045482;28;20260;-77
2021/11/20 06:03:19;;;;;;;2.67;1.80;;;8.30;90.10;;;;;;5047706;28;20202;-77
2021/11/20 06:05:46;;;;;;;1.63;1.40;;;8.30;89.90;;;;;;5043871;28;20194;-76
2021/11/20 06:08:13;;;;;;;1.77;1.63;;;8.30;90.00;;;;;;5043981;28;20663;-77
2021/11/20 06:10:40;;;;;;;1.83;1.77;;;8.30;89.90;;;;;;5045834;28;20187;-77
2021/11/20 06:13:08;;;;;;;2.20;2.10;;;8.30;89.90;;;;;;5044377;28;20656;-77
2021/11/20 06:15:34;;;;;;;1.13;1.13;;;8.30;89.90;;;;;;5046531;28;20282;-77
2021/11/20 06:18:00;;;;;;;1.90;1.70;;;8.30;89.80;;;;;;5044779;28;20705;-77
2021/11/20 06:20:26;;;;;;;2.00;1.90;;;8.30;89.60;;;;;;5045195;28;20184;-77
2021/11/20 06:22:52;;;;;;;1.60;1.57;;;;;;;;;;5045703;28;20214;-77
2021/11/20 06:25:18;;;;;;;1.70;1.60;;;8.30;89.70;;;;;;5046149;28;20190;-77
2021/11/20 06:27:44;;;;;;;2.10;2.00;;;8.30;89.60;;;;;;5045695;28;20184;-77
2021/11/20 06:30:17;;;;;;;1.83;1.60;;;8.30;89.50;;;;;;5045351;28;20193;-77
2021/11/20 06:32:43;;;;;;;1.80;1.70;;;8.30;89.40;;;;;;5060482;28;20175;-76
2021/11/20 06:35:11;;;;;;;1.30;1.30;;;8.40;89.20;;;;;;5045536;28;20242;-77
2021/11/20 06:37:39;;;;;;;2.17;1.97;;;8.40;89.20;;;;;;5046628;28;20588;-75
2021/11/20 06:40:08;;;;;;;2.27;1.83;;;8.40;89.10;;;;;;5043186;28;20215;-75
2021/11/20 06:42:34;;;;;;;2.33;2.10;;;8.40;89.00;;;;;;5043060;28;20289;-75
2021/11/20 06:45:00;;;;;;;1.70;1.60;;;;;;;;;;5045210;28;20183;-74
2021/11/20 06:47:26;;;;;;;1.30;1.30;;;;;;;;;;5044708;28;20566;-73
2021/11/20 06:49:53;;;;;;;1.53;1.53;;;;;;;;;;5044162;28;20969;-75
2021/11/20 06:52:19;;;;;;;1.33;1.30;;;;;;;;;;5047198;28;20186;-75
2021/11/20 06:54:44;;;;;;;1.60;1.50;;;8.50;88.40;;;;;;5045013;28;20183;-75
2021/11/20 06:57:13;;;;;;;1.60;1.40;;;8.50;88.20;;;;;;5043618;28;20184;-73
2021/11/20 07:02:23;;;;;;;1.53;1.37;;;8.60;88.00;;;;;;5047067;28;20183;-75
2021/11/20 07:04:49;;;;;;;1.90;1.70;;;8.60;87.90;;;;;;5042183;28;20195;-75
2021/11/20 07:07:15;;;;;;;1.57;1.50;;;8.60;87.80;;;;;;5043587;28;20250;-75
2021/11/20 07:09:41;;;;;;;1.30;1.20;;;8.60;87.60;;;;;;5042351;28;20191;-75
2021/11/20 07:12:07;;;;;;;1.90;1.77;;;8.60;87.60;;;;;;5044891;28;20180;-75
2021/11/20 07:14:33;;;;;;;1.73;1.47;;;8.60;87.60;;;;;;5042531;28;20758;-75
2021/11/20 07:16:59;;;;;;;1.27;1.27;;;8.60;87.50;;;;;;5043298;28;20183;-75
2021/11/20 07:19:25;;;;;;;2.97;1.90;;;8.60;87.40;;;;;;5043094;28;20215;-76
2021/11/20 07:21:51;;;;;;;1.63;1.53;;;8.60;87.30;;;;;;5044784;28;21566;-76
2021/11/20 07:24:19;;;;;;;1.33;1.33;;;8.60;87.20;;;;;;5043398;28;20230;-75
2021/11/20 07:26:46;;;;;;;1.20;1.20;;;8.70;87.10;;;;;;5045080;28;20180;-75
2021/11/20 07:29:12;;;;;;;5.33;0.97;;;8.70;87.00;;;;;;5044776;28;20188;-76
2021/11/20 07:31:37;;;;;;;1.20;1.20;;;8.70;86.90;;;;;;5044545;28;20184;-76
2021/11/20 07:34:04;;;;;;;7.00;1.50;;;8.70;86.70;;;;;;5044494;28;20668;-75
2021/11/20 07:36:35;;;;;;;2.57;1.50;;;;;;;;;;5043837;28;20746;-75
2021/11/20 07:39:03;;;;;;;2.10;1.33;;;8.80;86.70;;;;;;5044639;28;20283;-75
2021/11/20 07:41:29;;;;;;;1.80;1.70;;;;;;;;;;5044498;28;20257;-75
2021/11/20 07:43:56;;;;;;;1.63;1.53;;;8.80;86.30;;;;;;5042855;28;20269;-73
2021/11/20 07:46:22;;;;;;;2.20;1.40;;;8.90;86.30;;;;;;5044478;28;20190;-74
2021/11/20 07:48:48;;;;;;;1.40;1.40;;;8.90;86.10;;;;;;5044423;28;20193;-73
2021/11/20 07:51:15;;;;;;;1.70;1.60;;;8.90;85.80;;;;;;5046155;28;20187;-73
2021/11/20 07:53:42;;;;;;;2.03;1.83;;;9.00;85.70;;;;;;5043108;28;20194;-73
2021/11/20 07:56:09;;;;;;;1.53;1.53;;;;;;;;;;5043716;28;20192;-76
2021/11/20 07:58:37;;;;;;;1.83;1.73;;;9.10;85.40;;;;;;5043113;28;20214;-74
2021/11/20 08:01:04;;;;;;;1.97;1.87;;;9.10;85.20;;;;;;5046241;28;20184;-74
2021/11/20 08:03:29;;;;;;;1.90;1.60;;;9.20;85.00;;;;;;5043382;28;20184;-74
2021/11/20 08:05:56;;;;;;;1.50;1.50;;;9.30;84.90;;;;;;5044976;28;20233;-75
2021/11/20 08:08:22;;;;;;;3.20;2.00;;;9.40;84.80;;;;;;5044680;28;20681;-75
2021/11/20 08:10:50;;;;;;;1.43;1.43;;;9.70;83.90;;;;;;5043237;28;20234;-76
2021/11/20 08:13:16;;;;;;;2.43;1.63;;;10.00;83.20;;;;;;5045262;28;20186;-75
2021/11/20 08:15:42;;;;;;;2.17;2.13;;;10.20;82.30;;;;;;5045071;28;20190;-75
2021/11/20 08:18:08;;;;;;;2.15;1.98;;;10.30;81.80;;;;;;5045751;28;20196;-76
2021/11/20 08:20:38;;;;;;;1.80;1.70;;;10.50;81.30;;;;;;5044246;28;20183;-75
2021/11/20 08:23:09;;;;;;;2.45;1.70;;;10.60;81.10;;;;;;5043670;28;20187;-75
2021/11/20 08:25:38;;;;;;;2.08;1.88;;;10.70;80.30;;;;;;5042406;28;20206;-76
2021/11/20 08:28:06;;;;;;;2.17;2.10;;;10.70;80.00;;;;;;5046838;28;20184;-75
2021/11/20 08:30:33;;;;;;;2.42;2.33;;;10.80;80.00;;;;;;5047569;28;20199;-76
2021/11/20 08:33:00;;;;;;;1.52;1.52;;;10.90;79.60;;;;;;5047941;28;20189;-75
2021/11/20 08:35:27;;;;;;;2.22;2.13;;;11.00;79.40;;;;;;5047187;28;20796;-74
2021/11/20 08:37:54;;;;;;;2.42;2.28;;;11.00;79.20;;;;;;5046499;28;20189;-77
2021/11/20 08:40:25;;;;;;;2.40;2.22;;;11.40;79.30;;;;;;5044471;28;20250;-77
2021/11/20 08:42:52;;;;;;;2.22;1.98;;;11.70;77.80;;;;;;5045581;28;20187;-75
2021/11/20 08:45:23;;;;;;;2.55;2.42;;;11.60;77.50;;;;;;5044564;28;20642;-75
2021/11/20 08:47:52;;;;;;;1.85;1.75;;;11.50;77.60;;;;;;5044667;28;20645;-75
2021/11/20 08:50:23;;;;;;;2.05;1.95;;;11.40;78.10;;;;;;5046859;28;20619;-75
2021/11/20 08:52:49;;;;;;;1.55;1.55;;;11.30;78.30;;;;;;5045581;28;20186;-77
2021/11/20 08:55:15;;;;;;;1.98;1.88;;;11.20;78.80;;;;;;5044946;28;20187;-76
2021/11/20 08:57:42;;;;;;;2.88;2.00;;;11.10;79.20;;;;;;5044589;28;20300;-77
2021/11/20 09:00:15;;;;;;;2.28;1.98;;;11.10;79.60;;;;;;5045051;28;20233;-74
2021/11/20 09:02:52;;;;;;;1.42;1.42;;;11.10;79.90;;;;;;5042196;28;20219;-75
2021/11/20 09:05:32;;;;;;;1.73;1.63;;;11.00;80.20;;;;;;5043074;28;21158;-76
2021/11/20 09:08:00;;;;;;;1.85;1.75;;;10.90;80.70;;;;;;5043169;28;20186;-74
2021/11/20 09:10:33;;;;;;;2.28;2.05;;;10.80;81.20;;;;;;5045616;28;20275;-76
2021/11/20 09:13:02;;;;;;;2.20;2.10;;;10.80;81.50;;;;;;5044914;28;20198;-73
2021/11/20 09:15:42;;;;;;;2.05;1.95;;;10.80;81.70;;;;;;5043002;28;20673;-72
2021/11/20 09:18:09;;;;;;;2.25;1.80;;;10.80;81.90;;;;;;5043134;28;20195;-73
2021/11/20 09:20:36;;;;;;;1.25;1.25;;;10.70;82.20;;;;;;5045544;28;20222;-76
2021/11/20 09:23:02;;;;;;;1.92;1.88;;;10.60;82.50;;;;;;5044222;28;20562;-75
2021/11/20 09:25:28;;;;;;;1.63;1.40;;;10.60;82.70;;;;;;5042861;28;20184;-74
2021/11/20 09:27:54;;;;;;;1.05;1.05;;;10.60;83.00;;;;;;5044576;28;20246;-75
2021/11/20 09:30:32;;;;;;;2.45;1.77;;;10.50;83.30;;;;;;5046553;28;20179;-74
2021/11/20 09:32:58;;;;;;;1.95;1.85;;;10.40;83.60;;;;;;5046748;28;20734;-75
2021/11/20 09:35:25;;;;;;;2.03;1.95;;;10.40;84.00;;;;;;5046244;28;20187;-75
2021/11/20 09:37:51;;;;;;;1.90;1.80;;;10.40;84.20;;;;;;5046263;28;20176;-76
2021/11/20 09:40:17;;;;;;;2.58;2.00;;;10.30;84.40;;;;;;5045166;28;20210;-76
2021/11/20 09:42:43;;;;;;;1.70;1.60;;;;;;;;;;5043475;28;20186;-78
2021/11/20 09:45:17;;;;;;;1.95;1.85;;;10.30;84.80;;;;;;5045196;28;20180;-78
2021/11/20 09:47:53;;;;;;;1.70;1.70;;;10.30;84.90;;;;;;5044290;28;20622;-76
2021/11/20 09:50:30;;;;;;;1.83;1.73;;;10.20;84.90;;;;;;5045025;28;20186;-75
2021/11/20 09:52:56;;;;;;;2.03;1.90;;;10.30;84.90;;;;;;5046272;28;20214;-75
2021/11/20 09:55:36;;;;;;;2.03;1.92;;;10.30;84.90;;;;;;5045901;28;20289;-76
2021/11/20 09:58:10;;;;;;;2.55;2.03;;;10.30;85.00;;;;;;5050052;28;20946;-75
2021/11/20 10:00:50;;;;;;;2.50;2.30;;;10.30;85.10;;;;;;5045809;28;20212;-74
2021/11/20 10:03:32;;;;;;;10.18;3.03;;;10.30;85.00;;;;;;5043130;28;20189;-74
2021/11/20 10:06:03;;;;;;;3.38;1.80;;;10.30;85.00;;;;;;5039952;28;20524;-77
2021/11/20 10:08:32;;;;;;;2.22;2.13;;;10.40;85.00;;;;;;5043482;28;20187;-73
2021/11/20 10:11:09;;;;;;;1.58;1.50;;;10.40;85.00;;;;;;5045059;28;20180;-74
2021/11/20 10:14:08;;;;;;;1.13;1.13;;;10.30;85.10;;;;;;5041904;28;20265;-75
2021/11/20 10:16:53;;;;;;;2.30;2.17;;;10.20;85.40;;;;;;5043945;28;20192;-76
2021/11/20 10:19:30;;;;;;;4.47;3.00;;;10.30;85.50;;;;;;5045243;28;20661;-76
2021/11/20 10:22:14;;;;;;;2.33;2.13;;;10.30;85.50;;;;;;5045115;28;20228;-76
2021/11/20 10:25:02;;;;;;;4.77;2.37;;;10.30;85.60;;;;;;5041523;28;20190;-76
2021/11/20 10:27:38;;;;;;;2.17;2.07;;;10.20;85.70;;;;;;5041665;28;20198;-78
2021/11/20 10:30:47;;;;;;;2.00;1.90;;;10.20;85.90;;;;;;5042009;28;20195;-75
2021/11/20 10:33:21;;;;;;;3.30;2.20;;;10.10;86.00;;;;;;5043477;28;20255;-74
2021/11/20 10:35:51;;;;;;;2.10;2.00;;;10.10;86.30;;;;;;5042180;28;20215;-73
2021/11/20 10:38:19;;;;;;;1.60;1.60;;;10.00;86.50;;;;;;5045033;28;20187;-74
2021/11/20 10:40:52;;;;;;;1.53;1.43;;;10.00;86.50;;;;;;5043932;28;20187;-73
2021/11/20 10:43:33;;;;;;;1.77;1.77;;;10.00;86.70;;;;;;5043704;28;20188;-74
2021/11/20 10:46:01;;;;;;;1.88;1.73;;;10.00;86.70;;;;;;5043373;28;20187;-72
2021/11/20 10:48:30;;;;;;;1.50;1.40;;;10.00;86.70;;;;;;5045204;28;20505;-72
2021/11/20 10:51:36;;;;;;;1.90;1.70;;;10.10;86.70;;;;;;5043487;28;20183;-73
2021/11/20 10:54:20;;;;;;;1.77;1.77;;;10.10;86.70;;;;;;5000493;28;20228;-72
2021/11/20 10:57:26;;;;;;;2.97;2.20;;;10.10;86.70;;;;;;5021152;28;20176;-74
2021/11/20 11:00:13;;;;;;;1.60;1.60;;;10.10;86.70;;;;;;5018162;28;20220;-75
2021/11/20 11:02:57;;;;;;;3.53;2.63;;;10.20;86.60;;;;;;5021940;28;20196;-74
2021/11/20 11:05:36;;;;;;;2.35;2.22;;;10.20;86.60;;;;;;5004009;28;20262;-74
2021/11/20 11:08:22;;;;;;;2.85;2.67;;;10.20;86.60;;;;;;5017886;28;20203;-74
2021/11/20 11:10:55;;;;;;;2.40;2.20;;;10.20;86.60;;;;;;5020398;28;20231;-75
2021/11/20 11:13:42;;;;;;;2.40;2.30;;;10.20;86.60;;;;;;5020681;28;20274;-74
2021/11/20 11:16:18;;;;;;;2.58;2.47;;;10.20;86.50;;;;;;5020007;28;20702;-72
2021/11/20 11:19:13;;;;;;;2.63;2.43;;;10.30;86.30;;;;;;5019088;28;20227;-74
2021/11/20 11:21:59;;;;;;;5.97;2.80;;;10.20;86.20;;;;;;5020320;28;20215;-75
2021/11/20 11:24:52;;;;;;;2.50;2.40;;;10.30;86.20;;;;;;5021735;28;20199;-75
2021/11/20 11:27:41;;;;;;;2.57;2.37;;;10.30;86.10;;;;;;5020571;28;20707;-75
2021/11/20 11:30:15;;;;;;;2.22;2.10;;;10.30;86.00;;;;;;5020723;28;20222;-75
2021/11/20 11:32:45;;;;;;;2.60;2.50;;;10.40;85.80;;;;;;5045083;28;20194;-76
2021/11/20 11:35:37;;;;;;;2.53;2.42;;;10.60;85.90;;;;;;5043131;28;20207;-76
2021/11/20 11:38:24;;;;;;;3.28;2.10;;;10.80;84.70;;;;;;5008060;28;20355;-73
2021/11/20 11:40:55;;;;;;;2.80;2.60;;;10.80;84.40;;;;;;5006773;28;20193;-76
2021/11/20 11:43:40;;;;;;;2.80;2.58;;;10.90;84.20;;;;;;5006724;28;20229;-75
2021/11/20 11:46:20;;;;;;;3.08;2.88;;;11.20;83.80;;;;;;5012310;28;20249;-75
2021/11/20 11:49:05;;;;;;;2.83;2.63;;;11.30;83.00;;;;;;5025379;28;20275;-75
2021/11/20 11:51:48;;;;;;;3.00;2.75;;;11.40;82.90;;;;;;5011300;28;20619;-76
2021/11/20 11:54:31;;;;;;;3.25;3.10;;;11.50;82.50;;;;;;5007974;28;20702;-74
2021/11/20 11:57:11;;;;;;;2.58;2.38;;;11.40;82.40;;;;;;5009040;28;20541;-75
2021/11/20 11:59:42;;;;;;;2.47;2.38;;;11.40;82.40;;;;;;5014494;28;20227;-75
2021/11/20 12:02:19;;;;;;;3.03;2.05;;;11.30;82.70;;;;;;5014674;28;20197;-75
2021/11/20 12:04:53;;;;;;;3.00;2.80;;;11.40;82.80;;;;;;5015992;28;20334;-75
2021/11/20 12:07:24;;;;;;;2.83;2.65;;;11.60;82.80;;;;;;5026075;28;20712;-74
2021/11/20 12:09:52;;;;;;;3.28;2.97;;;11.90;82.00;;;;;;5010685;28;20200;-74
2021/11/20 12:12:34;;;;;;;4.55;3.33;;;12.30;80.40;;;;;;5012669;28;20185;-75
2021/11/20 12:15:18;;;;;;;2.55;2.40;;;12.30;79.20;;;;;;5047905;28;20754;-75
2021/11/20 12:18:13;;;;;;;3.33;2.22;;;12.10;79.10;;;;;;5049107;28;20568;-75
2021/11/20 12:20:42;;;;;;;2.45;2.35;;;11.80;79.80;;;;;;5005783;28;20224;-75
2021/11/20 12:23:35;;;;;;;2.92;2.85;;;11.60;80.30;;;;;;5008651;28;20192;-74
2021/11/20 12:26:15;;;;;;;2.50;2.40;;;11.30;81.00;;;;;;5006630;28;20188;-75
2021/11/20 12:29:14;;;;;;;2.78;2.67;;;11.30;81.20;;;;;;5004938;28;20288;-75
2021/11/20 12:32:06;;;;;;;3.28;2.80;;;11.20;81.60;;;;;;5005519;28;20193;-75
2021/11/20 12:34:56;;;;;;;3.15;2.95;;;11.10;81.80;;;;;;4990278;28;21049;-74
2021/11/20 12:37:33;;;;;;;2.25;2.15;;;11.10;81.70;;;;;;5004283;28;20595;-74
2021/11/20 12:40:20;;;;;;;2.17;2.08;;;11.10;81.70;;;;;;4987785;28;20221;-74
2021/11/20 12:43:07;;;;;;;2.50;2.40;;;11.00;81.80;;;;;;5005850;28;20778;-74
2021/11/20 12:46:01;;;;;;;2.63;2.45;;;11.00;82.00;;;;;;5004373;28;20238;-75
2021/11/20 12:48:32;;;;;;;2.33;2.22;;;11.10;81.80;;;;;;5005634;28;21006;-77
2021/11/20 12:51:04;;;;;;;2.40;2.22;;;11.10;81.60;;;;;;5003436;28;20202;-76
2021/11/20 12:53:51;;;;;;;2.05;1.90;;;11.10;81.60;;;;;;5006600;28;20185;-75
2021/11/20 12:56:17;;;;;;;2.05;1.92;;;11.10;81.60;;;;;;5012025;28;20207;-75
2021/11/20 12:59:13;;;;;;;1.40;1.40;;;11.10;81.10;;;;;;5047657;28;20709;-73
2021/11/20 13:01:44;;;;;;;2.00;1.92;;;11.10;81.40;;;;;;5047290;28;20199;-74
2021/11/20 13:04:17;;;;;;;11.73;2.20;;;11.10;81.40;;;;;;5053685;28;20194;-75
2021/11/20 13:06:57;;;;;;;2.25;2.08;;;11.10;81.40;;;;;;5057908;28;20180;-76
2021/11/20 13:09:25;;;;;;;2.20;2.00;;;11.10;81.40;;;;;;5054693;28;20258;-74
2021/11/20 13:12:18;;;;;;;2.28;2.17;;;11.10;81.20;;;;;;5048702;28;20704;-74
2021/11/20 13:15:12;;;;;;;1.98;1.88;;;11.30;81.20;;;;;;5044407;28;20180;-73
2021/11/20 13:18:11;;;;;;;1.95;1.85;;;11.70;80.40;;;;;;5046076;28;20546;-73
2021/11/20 13:21:02;;;;;;;2.10;2.00;;;12.20;79.00;;;;;;5043173;28;20257;-73
2021/11/20 13:23:34;;;;;;;2.30;2.22;;;12.40;78.00;;;;;;5025283;28;20200;-72
2021/11/20 13:26:00;;;;;;;2.28;2.15;;;12.50;77.40;;;;;;5023300;28;20196;-72
2021/11/20 13:28:33;;;;;;;2.42;1.98;;;12.40;77.20;;;;;;5025413;28;20224;-72
2021/11/20 13:30:59;;;;;;;4.40;2.08;;;12.20;77.40;;;;;;5024387;28;20216;-73